Time;durP1;ratioP1;P1;durP2;ratioP2;P2;SDS_P1;SDS_P2;PMS_P1;PMS_P2;Temp;Humidity;BMP_temperature;BMP_pressure;BME280_temperature;BME280_humidity;BME280_pressure;Samples;Min_cycle;Max_cycle;Signal;HPM_P1;HPM_P2
2022/01/13 00:00:57;;;;;;;44.08;15.68;;;2.90;99.90;;;;;;5076258;28;20040;-60
2022/01/13 00:03:22;;;;;;;69.30;15.20;;;3.00;99.90;;;;;;5076970;28;20385;-61
2022/01/13 00:05:48;;;;;;;40.63;14.68;;;3.10;99.90;;;;;;5076263;28;20456;-61
2022/01/13 00:08:14;;;;;;;39.20;16.08;;;3.10;99.90;;;;;;5059373;28;20123;-61
2022/01/13 00:10:40;;;;;;;31.02;15.02;;;2.90;99.90;;;;;;5076924;28;20085;-61
2022/01/13 00:13:08;;;;;;;72.82;15.60;;;2.90;99.90;;;;;;5076013;28;20288;-62
2022/01/13 00:18:37;;;;;;;44.28;14.50;;;2.70;99.90;;;;;;5076792;28;20037;-61
2022/01/13 00:23:47;;;;;;;42.75;16.17;;;2.70;99.90;;;;;;5076640;28;20078;-61
2022/01/13 00:26:17;;;;;;;33.58;15.05;;;3.00;99.90;;;;;;5076702;28;20112;-61
2022/01/13 00:28:48;;;;;;;38.03;16.10;;;3.20;99.90;;;;;;5076644;28;20047;-61
2022/01/13 00:31:17;;;;;;;77.38;14.80;;;3.30;99.90;;;;;;5076715;28;20047;-61
2022/01/13 00:33:45;;;;;;;51.90;14.90;;;3.40;99.90;;;;;;5075681;28;20116;-60
2022/01/13 00:36:12;;;;;;;39.72;15.05;;;3.20;99.90;;;;;;5076587;28;20033;-61
2022/01/13 00:38:38;;;;;;;54.63;15.27;;;3.00;99.90;;;;;;5076443;28;20071;-61
2022/01/13 00:41:04;;;;;;;54.08;14.45;;;3.00;99.90;;;;;;5076586;28;20036;-61
2022/01/13 00:43:31;;;;;;;48.95;15.82;;;2.90;99.90;;;;;;5076269;28;20036;-61
2022/01/13 00:45:57;;;;;;;75.43;16.33;;;2.90;99.90;;;;;;5076417;28;20025;-61
2022/01/13 00:48:22;;;;;;;32.15;15.00;;;2.90;99.90;;;;;;5076420;28;20043;-61
2022/01/13 00:50:48;;;;;;;37.03;16.10;;;2.80;99.90;;;;;;5075873;28;20082;-60
2022/01/13 00:53:14;;;;;;;40.00;15.23;;;2.90;99.90;;;;;;5076483;28;20033;-61
2022/01/13 00:55:58;;;;;;;36.15;15.82;;;3.00;99.90;;;;;;5076527;28;20025;-61
2022/01/13 00:58:35;;;;;;;82.50;16.38;;;3.00;99.90;;;;;;5075694;28;20036;-61
2022/01/13 01:01:02;;;;;;;58.45;15.85;;;3.10;99.90;;;;;;5076532;28;20044;-61
2022/01/13 01:03:28;;;;;;;58.45;16.25;;;3.00;99.90;;;;;;5058910;28;20032;-61
2022/01/13 01:05:55;;;;;;;33.60;16.30;;;3.10;99.90;;;;;;5075773;28;20039;-61
2022/01/13 01:08:21;;;;;;;34.65;17.13;;;3.30;99.90;;;;;;5075465;28;20029;-61
2022/01/13 01:10:49;;;;;;;65.93;16.73;;;3.40;99.90;;;;;;5076402;28;20020;-61
2022/01/13 01:13:20;;;;;;;52.80;16.77;;;3.70;99.90;;;;;;5076237;28;20036;-61
2022/01/13 01:15:54;;;;;;;44.00;16.50;;;3.70;99.90;;;;;;5075573;28;20028;-61
2022/01/13 01:18:33;;;;;;;31.55;14.43;;;3.30;99.90;;;;;;5076519;28;20100;-61
2022/01/13 01:23:30;;;;;;;37.53;15.80;;;3.30;99.90;;;;;;5076139;28;20064;-61
2022/01/13 01:26:24;;;;;;;44.85;15.43;;;3.20;99.90;;;;;;5078473;28;20029;-61
2022/01/13 01:28:49;;;;;;;45.83;14.70;;;3.20;99.90;;;;;;5078238;28;20040;-61
2022/01/13 01:31:16;;;;;;;34.40;14.05;;;3.20;99.90;;;;;;5079726;28;20392;-62
2022/01/13 01:33:51;;;;;;;37.85;12.52;;;3.10;99.90;;;;;;5078856;28;20059;-60
2022/01/13 01:36:18;;;;;;;47.35;13.77;;;2.60;99.90;;;;;;5064383;28;20298;-60
2022/01/13 01:38:47;;;;;;;76.82;14.70;;;2.60;99.90;;;;;;5079414;28;20139;-60
2022/01/13 01:41:13;;;;;;;39.22;14.55;;;2.90;99.90;;;;;;5078744;28;20028;-61
2022/01/13 01:43:40;;;;;;;39.35;12.63;;;3.00;99.90;;;;;;5079678;28;20101;-61
2022/01/13 01:46:06;;;;;;;39.60;14.27;;;2.80;99.90;;;;;;5079676;28;20319;-61
2022/01/13 01:48:35;;;;;;;49.28;15.50;;;2.70;99.90;;;;;;5078672;28;20070;-61
2022/01/13 01:51:04;;;;;;;41.65;14.45;;;2.60;99.90;;;;;;5079382;28;20036;-61
2022/01/13 01:53:30;;;;;;;36.53;14.45;;;2.60;99.90;;;;;;5079354;28;20028;-61
2022/01/13 01:55:56;;;;;;;44.90;15.75;;;2.70;99.90;;;;;;5079305;28;20032;-60
2022/01/13 01:58:26;;;;;;;53.67;15.30;;;2.90;99.90;;;;;;5079255;28;20307;-60
2022/01/13 02:00:54;;;;;;;61.30;15.38;;;2.70;99.90;;;;;;5079275;28;20120;-60
2022/01/13 02:03:22;;;;;;;50.50;14.73;;;2.60;99.90;;;;;;5079169;28;20123;-61
2022/01/13 02:05:48;;;;;;;48.60;14.85;;;2.60;99.90;;;;;;5061644;28;20039;-61
2022/01/13 02:08:14;;;;;;;66.43;16.35;;;2.60;99.90;;;;;;5078367;28;20284;-61
2022/01/13 02:10:40;;;;;;;45.33;15.93;;;2.70;99.90;;;;;;5079051;28;20043;-61
2022/01/13 02:13:10;;;;;;;43.80;16.25;;;2.90;99.90;;;;;;5078329;28;20036;-61
2022/01/13 02:18:34;;;;;;;53.10;14.60;;;3.00;99.90;;;;;;5056137;28;20063;-60
2022/01/13 02:21:01;;;;;;;42.03;15.43;;;2.80;99.90;;;;;;5077996;28;20307;-60
2022/01/13 02:23:31;;;;;;;71.13;16.77;;;2.60;99.90;;;;;;5078982;28;20399;-60
2022/01/13 02:25:57;;;;;;;38.80;16.10;;;2.60;99.90;;;;;;5078720;28;20102;-60
2022/01/13 02:28:23;;;;;;;47.00;15.20;;;2.50;99.90;;;;;;5078523;28;20119;-60
2022/01/13 02:30:49;;;;;;;43.72;15.32;;;2.50;99.90;;;;;;5077676;28;20044;-61
2022/01/13 02:33:15;;;;;;;62.65;15.52;;;2.40;99.90;;;;;;5078833;28;20021;-61
2022/01/13 02:35:41;;;;;;;55.70;16.33;;;2.50;99.90;;;;;;5078343;28;20032;-62
2022/01/13 02:38:11;;;;;;;32.25;14.20;;;2.50;99.90;;;;;;5077712;28;20052;-62
2022/01/13 02:40:38;;;;;;;51.08;15.10;;;2.50;99.90;;;;;;5078431;28;20109;-62
2022/01/13 02:43:05;;;;;;;36.60;15.60;;;2.70;99.90;;;;;;5078311;28;20032;-64
2022/01/13 02:45:35;;;;;;;43.03;16.85;;;2.60;99.90;;;;;;5078351;28;20028;-61
2022/01/13 02:48:35;;;;;;;65.00;17.63;;;2.50;99.90;;;;;;5078014;28;20082;-61
2022/01/13 02:50:54;;;;;;;50.60;15.55;;;2.70;99.90;;;;;;5076146;28;20044;-62
2022/01/13 02:53:20;;;;;;;96.25;17.55;;;2.80;99.90;;;;;;5078399;28;20285;-61
2022/01/13 02:55:46;;;;;;;39.13;16.35;;;2.90;99.90;;;;;;5078215;28;20028;-62
2022/01/13 02:58:14;;;;;;;42.45;14.90;;;3.10;99.90;;;;;;5078074;28;20344;-61
2022/01/13 03:00:40;;;;;;;46.45;14.50;;;2.80;99.90;;;;;;5078035;28;20089;-62
2022/01/13 03:03:06;;;;;;;53.40;13.65;;;2.60;99.90;;;;;;5077508;28;20307;-62
2022/01/13 03:05:37;;;;;;;50.05;14.65;;;2.30;99.90;;;;;;5078538;28;20043;-62
2022/01/13 03:08:04;;;;;;;38.28;15.35;;;2.10;99.90;;;;;;5077140;28;20036;-62
2022/01/13 03:10:30;;;;;;;40.03;14.85;;;2.10;99.90;;;;;;5077171;28;20025;-62
2022/01/13 03:12:57;;;;;;;67.60;17.77;;;2.10;99.90;;;;;;5076942;28;20039;-62
2022/01/13 03:15:23;;;;;;;43.38;16.15;;;2.10;99.90;;;;;;5078324;28;20028;-62
2022/01/13 03:17:49;;;;;;;53.25;15.85;;;2.10;99.90;;;;;;5060198;28;20119;-62
2022/01/13 03:20:16;;;;;;;57.45;15.27;;;2.10;99.90;;;;;;5077695;28;20025;-62
2022/01/13 03:22:42;;;;;;;37.97;15.52;;;2.20;99.90;;;;;;5077606;28;20042;-61
2022/01/13 03:25:09;;;;;;;44.58;16.20;;;2.40;99.90;;;;;;5077560;28;20031;-61
2022/01/13 03:27:36;;;;;;;59.38;16.15;;;2.50;99.90;;;;;;5077477;28;20020;-61
2022/01/13 03:30:06;;;;;;;49.58;16.73;;;2.60;99.90;;;;;;5077414;28;20358;-62
2022/01/13 03:32:36;;;;;;;39.63;15.18;;;2.60;99.90;;;;;;5077422;28;20031;-61
2022/01/13 03:35:04;;;;;;;46.47;16.75;;;2.60;99.90;;;;;;5077688;28;20031;-61
2022/01/13 03:37:30;;;;;;;37.88;17.00;;;2.90;99.90;;;;;;5077174;28;20052;-62
2022/01/13 03:40:00;;;;;;;38.67;16.23;;;2.90;99.90;;;;;;5076684;28;20044;-62
2022/01/13 03:42:26;;;;;;;41.58;16.25;;;3.00;99.90;;;;;;5077166;28;20033;-61
2022/01/13 03:44:52;;;;;;;37.65;16.73;;;3.00;99.90;;;;;;5077767;28;20405;-62
2022/01/13 03:47:18;;;;;;;69.45;17.42;;;3.10;99.90;;;;;;5076990;28;20064;-62
2022/01/13 03:49:44;;;;;;;47.65;18.38;;;3.20;99.90;;;;;;5077062;28;20055;-62
2022/01/13 03:52:54;;;;;;;49.60;17.23;;;3.10;99.90;;;;;;5077062;28;20021;-62
2022/01/13 03:55:28;;;;;;;43.67;17.02;;;3.00;99.90;;;;;;5061731;28;20032;-61
2022/01/13 03:58:13;;;;;;;60.05;18.15;;;3.10;99.90;;;;;;5076533;28;20032;-62
2022/01/13 04:01:06;;;;;;;37.25;16.13;;;3.20;99.90;;;;;;5076984;28;20067;-62
2022/01/13 04:03:32;;;;;;;39.83;15.32;;;3.00;99.90;;;;;;5077128;28;20024;-61
2022/01/13 04:05:59;;;;;;;44.30;15.18;;;2.60;99.90;;;;;;5077005;28;20093;-62
2022/01/13 04:08:25;;;;;;;42.95;16.10;;;2.50;99.90;;;;;;5076798;28;20360;-62
2022/01/13 04:11:06;;;;;;;42.00;16.85;;;2.30;99.90;;;;;;5059617;28;20048;-62
2022/01/13 04:16:27;;;;;;;84.18;17.10;;;2.30;99.90;;;;;;5077514;28;20047;-61
2022/01/13 04:18:57;;;;;;;73.00;16.55;;;2.30;99.90;;;;;;5076964;28;20120;-61
2022/01/13 04:21:23;;;;;;;53.22;16.55;;;2.40;99.90;;;;;;5076381;28;20036;-62
2022/01/13 04:23:51;;;;;;;52.13;16.77;;;2.50;99.90;;;;;;5076133;28;20047;-64
2022/01/13 04:26:19;;;;;;;110.55;18.05;;;2.50;99.90;;;;;;5076711;28;20044;-62
2022/01/13 04:28:47;;;;;;;76.45;18.08;;;2.70;99.90;;;;;;5076658;28;20071;-62
2022/01/13 04:31:13;;;;;;;67.90;17.55;;;2.90;99.90;;;;;;5076808;28;20037;-61
2022/01/13 04:33:39;;;;;;;50.25;16.88;;;3.00;99.90;;;;;;5076690;28;20373;-62
2022/01/13 04:36:08;;;;;;;70.00;18.13;;;3.10;99.90;;;;;;5077042;28;20307;-62
2022/01/13 04:38:34;;;;;;;84.22;17.15;;;3.10;99.90;;;;;;5076376;28;20063;-62
2022/01/13 04:41:01;;;;;;;43.00;16.50;;;2.90;99.90;;;;;;5075952;28;20036;-61
2022/01/13 04:43:32;;;;;;;47.38;16.38;;;2.60;99.90;;;;;;5076758;28;20312;-61
2022/01/13 04:45:58;;;;;;;68.60;19.15;;;2.50;99.90;;;;;;5075883;28;20032;-62
2022/01/13 04:48:24;;;;;;;58.67;17.50;;;2.40;99.90;;;;;;5076422;28;20299;-62
2022/01/13 04:50:50;;;;;;;38.88;16.55;;;2.50;99.90;;;;;;5076481;28;20070;-61
2022/01/13 04:53:16;;;;;;;37.53;16.58;;;2.60;99.90;;;;;;5076527;28;20108;-61
2022/01/13 04:55:57;;;;;;;69.38;16.88;;;2.50;99.90;;;;;;5075816;28;20035;-61
2022/01/13 04:58:23;;;;;;;59.58;17.55;;;2.40;99.90;;;;;;5076507;28;20327;-62
2022/01/13 05:00:49;;;;;;;74.10;17.73;;;2.30;99.90;;;;;;5078734;28;20029;-61
2022/01/13 05:03:15;;;;;;;47.70;19.48;;;2.40;99.90;;;;;;5080201;28;20043;-61
2022/01/13 05:05:41;;;;;;;52.55;18.23;;;2.40;99.90;;;;;;5080303;28;20425;-61
2022/01/13 05:08:06;;;;;;;48.33;18.63;;;2.50;99.90;;;;;;5079373;28;20111;-61
2022/01/13 05:10:32;;;;;;;56.35;18.38;;;2.70;99.90;;;;;;5080186;28;20040;-62
2022/01/13 05:12:58;;;;;;;89.88;17.42;;;2.70;99.90;;;;;;5080017;28;20024;-62
2022/01/13 05:15:26;;;;;;;77.75;18.80;;;2.70;99.90;;;;;;5080057;28;20052;-61
2022/01/13 05:20:37;;;;;;;80.55;18.05;;;2.70;99.90;;;;;;5079952;28;20021;-62
2022/01/13 05:23:08;;;;;;;71.32;18.17;;;2.50;99.90;;;;;;5080168;28;20025;-62
2022/01/13 05:25:34;;;;;;;58.63;18.40;;;2.30;99.90;;;;;;5079882;28;20376;-62
2022/01/13 05:27:59;;;;;;;70.28;19.17;;;2.30;99.90;;;;;;5079606;28;20082;-61
2022/01/13 05:30:25;;;;;;;124.95;21.10;;;2.30;99.90;;;;;;5079818;28;20036;-61
2022/01/13 05:32:51;;;;;;;91.10;20.83;;;2.40;99.90;;;;;;5079746;28;20036;-62
2022/01/13 05:35:17;;;;;;;72.03;19.70;;;2.30;99.90;;;;;;5079632;28;20037;-62
2022/01/13 05:37:44;;;;;;;63.80;20.17;;;2.30;99.90;;;;;;5079561;28;20048;-62
2022/01/13 05:40:12;;;;;;;65.97;21.08;;;2.40;99.90;;;;;;5079631;28;20074;-62
2022/01/13 05:42:38;;;;;;;76.60;19.65;;;2.30;99.90;;;;;;5079582;28;20395;-62
2022/01/13 05:45:13;;;;;;;103.57;18.02;;;2.10;99.90;;;;;;5079493;28;20033;-63
2022/01/13 05:47:40;;;;;;;83.47;17.95;;;2.00;99.90;;;;;;5079225;28;20033;-62
2022/01/13 05:50:07;;;;;;;64.38;18.63;;;1.90;99.90;;;;;;5078751;28;20141;-62
2022/01/13 05:52:33;;;;;;;84.35;17.88;;;2.00;99.90;;;;;;5079706;28;20107;-62
2022/01/13 05:54:59;;;;;;;70.22;19.45;;;2.10;99.90;;;;;;5079413;28;20090;-62
2022/01/13 05:57:25;;;;;;;121.10;18.90;;;2.10;99.90;;;;;;5078555;28;20039;-62
2022/01/13 05:59:50;;;;;;;67.13;18.75;;;2.00;99.90;;;;;;5079379;28;20456;-62
2022/01/13 06:02:16;;;;;;;85.15;18.92;;;2.00;99.90;;;;;;5078967;28;20053;-63
2022/01/13 06:04:42;;;;;;;105.03;23.35;;;2.10;99.90;;;;;;5079092;28;20098;-62
2022/01/13 06:07:08;;;;;;;114.57;19.73;;;2.10;99.90;;;;;;5079615;28;20261;-62
2022/01/13 06:09:33;;;;;;;93.47;21.27;;;2.10;99.90;;;;;;5078897;28;20425;-62
2022/01/13 06:12:02;;;;;;;109.75;20.15;;;2.10;99.90;;;;;;5078940;28;20032;-63
2022/01/13 06:14:28;;;;;;;55.20;18.27;;;2.10;99.90;;;;;;5078899;28;20458;-62
2022/01/13 06:16:54;;;;;;;67.28;19.85;;;2.00;99.90;;;;;;5078857;28;20116;-61
2022/01/13 06:19:20;;;;;;;98.22;18.75;;;2.00;99.90;;;;;;5078772;28;20059;-61
2022/01/13 06:21:46;;;;;;;107.90;18.88;;;2.10;99.90;;;;;;5078822;28;20082;-62
2022/01/13 06:24:12;;;;;;;63.38;17.95;;;2.00;99.90;;;;;;5078080;28;20345;-62
2022/01/13 06:26:38;;;;;;;129.10;19.08;;;1.90;99.90;;;;;;5078745;28;20047;-63
2022/01/13 06:29:04;;;;;;;96.03;17.88;;;2.00;99.90;;;;;;5077769;28;20285;-62
2022/01/13 06:31:30;;;;;;;131.10;19.08;;;1.80;99.90;;;;;;5078909;28;20326;-64
2022/01/13 06:33:56;;;;;;;144.75;19.38;;;1.80;99.90;;;;;;5077781;28;20029;-63
2022/01/13 06:36:22;;;;;;;106.30;19.02;;;1.70;99.90;;;;;;5077732;28;20124;-63
2022/01/13 06:38:49;;;;;;;72.03;19.05;;;1.60;99.90;;;;;;5077549;28;20416;-61
2022/01/13 06:41:16;;;;;;;104.47;18.63;;;1.70;99.90;;;;;;5077670;28;20107;-61
2022/01/13 06:43:42;;;;;;;115.80;18.35;;;1.60;99.90;;;;;;5078405;28;20040;-62
2022/01/13 06:46:07;;;;;;;100.10;19.27;;;1.80;99.90;;;;;;5078274;28;20055;-62
2022/01/13 06:48:33;;;;;;;149.13;23.58;;;1.70;99.90;;;;;;5077329;28;20308;-62
2022/01/13 06:50:59;;;;;;;72.13;19.35;;;1.80;99.90;;;;;;5078143;28;20040;-62
2022/01/13 06:53:25;;;;;;;134.77;19.13;;;1.90;99.90;;;;;;5077199;28;20032;-64
2022/01/13 06:55:51;;;;;;;59.97;18.63;;;1.90;99.90;;;;;;5078386;28;20025;-63
2022/01/13 06:58:17;;;;;;;53.80;19.60;;;1.80;99.90;;;;;;5078415;28;20048;-63
2022/01/13 07:00:43;;;;;;;70.43;20.42;;;1.90;99.90;;;;;;5078517;28;20040;-63
2022/01/13 07:03:10;;;;;;;75.03;19.67;;;1.90;99.90;;;;;;5077082;28;20039;-63
2022/01/13 07:05:36;;;;;;;66.80;19.58;;;1.90;99.90;;;;;;5077907;28;20438;-64
2022/01/13 07:08:03;;;;;;;68.25;19.42;;;2.00;99.90;;;;;;5077191;28;20044;-62
2022/01/13 07:10:28;;;;;;;196.05;21.35;;;2.10;99.90;;;;;;5076932;28;20029;-61
2022/01/13 07:12:55;;;;;;;70.68;19.58;;;2.30;99.90;;;;;;5060393;28;20036;-62
2022/01/13 07:15:21;;;;;;;95.88;19.08;;;2.40;99.90;;;;;;5077603;28;20033;-64
2022/01/13 07:17:47;;;;;;;70.88;16.52;;;2.40;99.90;;;;;;5077594;28;20100;-63
2022/01/13 07:20:14;;;;;;;69.75;18.65;;;2.20;99.90;;;;;;5077522;28;20036;-63
2022/01/13 07:22:40;;;;;;;67.90;17.58;;;1.90;99.90;;;;;;5076939;28;20296;-62
2022/01/13 07:25:09;;;;;;;65.28;17.60;;;1.90;99.90;;;;;;5077567;28;20222;-63
2022/01/13 07:27:35;;;;;;;108.57;19.45;;;2.00;99.90;;;;;;5077424;28;20032;-63
2022/01/13 07:30:02;;;;;;;74.88;19.00;;;1.90;99.90;;;;;;5077337;28;20033;-62
2022/01/13 07:32:27;;;;;;;56.03;18.88;;;1.90;99.90;;;;;;5076701;28;20032;-63
2022/01/13 07:34:54;;;;;;;48.80;19.88;;;2.10;99.90;;;;;;5077345;28;20042;-63
2022/01/13 07:37:24;;;;;;;55.70;18.65;;;2.40;99.90;;;;;;5077072;28;20032;-63
2022/01/13 07:39:50;;;;;;;152.38;18.88;;;2.60;99.90;;;;;;5077334;28;20352;-62
2022/01/13 07:42:16;;;;;;;193.82;21.35;;;2.90;99.90;;;;;;5077259;28;20335;-62
2022/01/13 07:44:42;;;;;;;110.68;18.13;;;3.10;99.90;;;;;;5076363;28;20055;-62
2022/01/13 07:47:08;;;;;;;51.53;16.65;;;3.10;99.90;;;;;;5077113;28;20039;-63
2022/01/13 07:49:37;;;;;;;106.25;17.52;;;3.00;99.90;;;;;;5077120;28;20029;-62
2022/01/13 07:52:03;;;;;;;64.13;16.85;;;2.80;99.90;;;;;;5077096;28;20111;-63
2022/01/13 07:54:31;;;;;;;64.55;17.40;;;2.40;99.90;;;;;;5077048;28;20292;-62
2022/01/13 07:56:59;;;;;;;71.10;17.42;;;2.20;99.90;;;;;;5076918;28;20029;-62
2022/01/13 07:59:29;;;;;;;72.88;17.40;;;2.10;99.90;;;;;;5076156;28;20028;-63
2022/01/13 08:01:59;;;;;;;100.57;17.90;;;2.00;99.90;;;;;;5077046;28;20037;-63
2022/01/13 08:04:25;;;;;;;63.35;18.50;;;2.00;99.90;;;;;;5076359;28;20055;-61
2022/01/13 08:06:51;;;;;;;73.15;19.38;;;2.20;99.90;;;;;;5076670;28;20036;-62
2022/01/13 08:09:17;;;;;;;57.22;17.52;;;2.30;99.90;;;;;;5076716;28;20044;-62
2022/01/13 08:11:44;;;;;;;59.60;19.20;;;2.30;99.90;;;;;;5076084;28;20405;-62
2022/01/13 08:14:10;;;;;;;151.30;20.02;;;2.40;99.90;;;;;;5076657;28;20369;-61
2022/01/13 08:16:40;;;;;;;65.25;17.35;;;2.50;99.90;;;;;;5076763;28;20075;-62
2022/01/13 08:21:51;;;;;;;51.90;17.35;;;2.30;99.90;;;;;;5075916;28;20415;-63
2022/01/13 08:24:17;;;;;;;65.97;15.57;;;2.30;99.90;;;;;;5075873;28;20024;-63
2022/01/13 08:26:42;;;;;;;62.90;15.15;;;2.30;99.90;;;;;;5076623;28;20033;-62
2022/01/13 08:29:08;;;;;;;48.83;14.80;;;2.00;99.90;;;;;;5076571;28;20041;-63
2022/01/13 08:31:34;;;;;;;40.95;15.55;;;1.80;99.90;;;;;;5076655;28;20025;-63
2022/01/13 08:34:00;;;;;;;91.57;15.70;;;2.00;99.90;;;;;;5076618;28;20028;-62
2022/01/13 08:36:26;;;;;;;47.83;15.63;;;2.20;99.90;;;;;;5079249;28;20419;-63
2022/01/13 08:38:52;;;;;;;49.00;15.82;;;2.50;99.90;;;;;;5079839;28;20114;-63
2022/01/13 08:41:18;;;;;;;56.10;16.02;;;2.60;99.90;;;;;;5080519;28;20038;-63
2022/01/13 08:43:44;;;;;;;52.45;15.35;;;2.70;99.90;;;;;;5080713;28;20033;-62
2022/01/13 08:46:10;;;;;;;41.90;15.27;;;2.60;99.90;;;;;;5080518;28;20120;-62
2022/01/13 08:48:36;;;;;;;72.00;13.45;;;2.60;99.90;;;;;;5080292;28;20405;-62
2022/01/13 08:51:04;;;;;;;53.60;15.05;;;2.60;99.90;;;;;;5080908;28;20040;-62
2022/01/13 08:53:30;;;;;;;37.50;14.80;;;2.50;99.90;;;;;;5080391;28;20380;-63
2022/01/13 08:55:58;;;;;;;58.53;13.93;;;2.50;99.90;;;;;;5080490;28;20035;-63
2022/01/13 08:58:25;;;;;;;84.40;15.50;;;2.60;99.90;;;;;;5079498;28;20040;-62
2022/01/13 09:00:53;;;;;;;48.13;15.63;;;2.70;99.90;;;;;;5080379;28;20068;-62
2022/01/13 09:03:19;;;;;;;43.20;14.75;;;3.00;99.90;;;;;;5080226;28;20028;-62
2022/01/13 09:05:45;;;;;;;37.35;15.20;;;3.30;99.90;;;;;;5080880;28;20111;-62
2022/01/13 09:08:12;;;;;;;63.08;15.20;;;3.50;99.90;;;;;;5079346;28;20385;-62
2022/01/13 09:10:40;;;;;;;119.53;15.10;;;3.70;99.90;;;;;;5080243;28;20021;-61
2022/01/13 09:13:07;;;;;;;74.05;14.63;;;3.70;99.90;;;;;;5080085;28;20057;-62
2022/01/13 09:18:07;;;;;;;38.30;15.27;;;3.90;99.90;;;;;;5079818;28;20092;-62
2022/01/13 09:20:33;;;;;;;78.57;15.95;;;3.80;99.90;;;;;;5079916;28;20037;-62
2022/01/13 09:22:59;;;;;;;62.55;15.63;;;3.70;99.90;;;;;;5079969;28;20029;-62
2022/01/13 09:25:25;;;;;;;36.63;14.40;;;3.70;99.90;;;;;;5079905;28;20055;-62
2022/01/13 09:27:51;;;;;;;54.97;15.65;;;3.30;99.90;;;;;;5080187;28;20300;-62
2022/01/13 09:30:17;;;;;;;43.28;15.07;;;3.30;99.90;;;;;;5079783;28;20025;-63
2022/01/13 09:32:43;;;;;;;46.50;15.65;;;3.30;99.90;;;;;;5079739;28;20044;-63
2022/01/13 09:35:09;;;;;;;54.65;15.65;;;3.00;99.90;;;;;;5079644;28;20024;-63
2022/01/13 09:37:36;;;;;;;55.00;15.95;;;2.90;99.90;;;;;;5079336;28;20130;-63
2022/01/13 09:40:05;;;;;;;40.75;16.08;;;2.90;99.90;;;;;;5079625;28;20097;-63
2022/01/13 09:42:33;;;;;;;43.53;16.02;;;3.00;99.90;;;;;;5078786;28;20040;-63
2022/01/13 09:45:02;;;;;;;45.92;16.65;;;3.10;99.90;;;;;;5079484;28;20028;-63
2022/01/13 09:47:29;;;;;;;42.38;17.27;;;3.20;99.90;;;;;;5079435;28;20127;-63
2022/01/13 09:49:55;;;;;;;39.88;15.82;;;3.30;99.90;;;;;;5078520;28;20067;-63
2022/01/13 09:52:23;;;;;;;95.95;18.90;;;3.20;99.90;;;;;;5079156;28;20039;-62
2022/01/13 09:54:49;;;;;;;63.67;18.00;;;3.00;99.90;;;;;;5078711;28;20033;-63
2022/01/13 09:57:15;;;;;;;74.82;17.60;;;3.00;99.90;;;;;;5079196;28;20119;-62
2022/01/13 09:59:41;;;;;;;40.85;16.38;;;2.90;99.90;;;;;;5078534;28;20308;-63
2022/01/13 10:02:07;;;;;;;60.10;16.77;;;2.90;99.90;;;;;;5078488;28;20436;-62
2022/01/13 10:04:53;;;;;;;62.00;16.98;;;3.10;99.90;;;;;;5079187;28;20024;-63
2022/01/13 10:07:43;;;;;;;50.50;17.88;;;3.00;99.90;;;;;;5079676;28;20284;-63
2022/01/13 10:10:15;;;;;;;49.53;17.02;;;3.10;99.90;;;;;;5078848;28;20097;-62
2022/01/13 10:12:43;;;;;;;60.17;17.80;;;3.00;99.90;;;;;;5079062;28;20020;-62
2022/01/13 10:18:00;;;;;;;40.83;16.85;;;3.20;99.90;;;;;;5079271;28;20365;-63
2022/01/13 10:20:27;;;;;;;53.10;17.90;;;3.50;99.90;;;;;;5078154;28;20400;-60
2022/01/13 10:22:53;;;;;;;48.33;19.23;;;3.80;99.90;;;;;;5078719;28;20066;-61
2022/01/13 10:25:37;;;;;;;94.35;18.75;;;3.80;99.90;;;;;;5078833;28;20031;-62
2022/01/13 10:28:23;;;;;;;57.65;18.95;;;3.60;99.90;;;;;;5078750;28;20050;-62
2022/01/13 10:30:52;;;;;;;57.78;19.23;;;3.90;99.90;;;;;;5061327;28;20052;-62
2022/01/13 10:33:19;;;;;;;61.78;19.20;;;3.80;99.90;;;;;;5078434;28;20399;-61
2022/01/13 10:35:46;;;;;;;56.53;17.38;;;3.80;99.90;;;;;;5078734;28;20059;-62
2022/01/13 10:38:16;;;;;;;87.70;19.60;;;3.70;99.90;;;;;;5077557;28;20129;-62
2022/01/13 10:40:47;;;;;;;39.60;17.50;;;3.70;99.90;;;;;;5078565;28;20299;-62
2022/01/13 10:43:16;;;;;;;48.72;18.08;;;4.00;99.90;;;;;;5061182;28;20039;-63
2022/01/13 10:45:46;;;;;;;47.05;17.92;;;4.20;99.90;;;;;;5078531;28;20071;-62
2022/01/13 10:48:19;;;;;;;47.88;17.48;;;4.20;99.90;;;;;;5078303;28;20032;-62
2022/01/13 10:50:48;;;;;;;40.28;17.95;;;4.60;99.90;;;;;;5078493;28;20346;-62
2022/01/13 10:53:23;;;;;;;55.75;17.65;;;4.80;99.90;;;;;;5078547;28;20302;-62
2022/01/13 10:55:55;;;;;;;62.55;19.27;;;4.70;99.90;;;;;;5078388;28;20028;-62
2022/01/13 10:58:33;;;;;;;53.28;17.58;;;4.10;99.90;;;;;;5076526;28;20052;-62
2022/01/13 11:01:00;;;;;;;47.70;18.30;;;4.10;99.90;;;;;;5078419;28;20064;-62
2022/01/13 11:03:29;;;;;;;51.85;18.15;;;4.40;99.90;;;;;;5078255;28;20098;-63
2022/01/13 11:06:02;;;;;;;52.30;19.15;;;4.40;99.90;;;;;;5078590;28;20037;-62
2022/01/13 11:08:33;;;;;;;60.97;20.55;;;4.00;99.90;;;;;;5077950;28;20036;-62
2022/01/13 11:11:02;;;;;;;47.33;19.48;;;3.70;99.90;;;;;;5077971;28;20025;-62
2022/01/13 11:13:33;;;;;;;49.17;19.88;;;3.50;99.90;;;;;;5077807;28;20097;-62
2022/01/13 11:15:59;;;;;;;55.03;20.45;;;3.70;99.90;;;;;;5077814;28;20288;-63
2022/01/13 11:18:28;;;;;;;61.28;19.70;;;3.80;99.90;;;;;;5077693;28;20029;-62
2022/01/13 11:20:55;;;;;;;51.42;19.98;;;3.70;99.90;;;;;;5078184;28;20103;-62
2022/01/13 11:23:22;;;;;;;73.97;20.80;;;3.70;99.90;;;;;;5077519;28;20032;-63
2022/01/13 11:25:54;;;;;;;59.45;21.45;;;3.70;99.90;;;;;;5077536;28;20308;-63
2022/01/13 11:28:20;;;;;;;52.08;20.88;;;3.90;99.90;;;;;;5076786;28;20422;-63
2022/01/13 11:30:50;;;;;;;46.95;20.67;;;3.70;99.90;;;;;;5078137;28;20099;-62
2022/01/13 11:33:20;;;;;;;61.20;21.45;;;3.90;99.90;;;;;;5076687;28;20039;-62
2022/01/13 11:35:55;;;;;;;48.70;21.20;;;4.00;99.90;;;;;;5076673;28;20028;-62
2022/01/13 11:38:23;;;;;;;70.10;21.80;;;3.80;99.90;;;;;;5077379;28;20040;-63
2022/01/13 11:40:53;;;;;;;55.63;21.35;;;3.70;99.90;;;;;;5077309;28;20094;-63
2022/01/13 11:43:35;;;;;;;73.32;23.13;;;3.60;99.90;;;;;;5077233;28;20036;-64
2022/01/13 11:46:13;;;;;;;66.93;22.83;;;3.50;99.90;;;;;;5078035;28;20040;-64
2022/01/13 11:49:02;;;;;;;86.90;24.05;;;3.70;99.90;;;;;;5076984;28;20046;-62
2022/01/13 11:51:55;;;;;;;70.10;22.33;;;4.10;99.90;;;;;;5077616;28;20029;-62
2022/01/13 11:54:33;;;;;;;81.05;22.67;;;3.90;99.90;;;;;;5077170;28;20021;-62
2022/01/13 11:57:09;;;;;;;52.15;21.58;;;3.90;99.90;;;;;;5077000;28;20031;-62
2022/01/13 11:59:36;;;;;;;55.97;23.13;;;3.80;99.90;;;;;;5077076;28;20028;-62
2022/01/13 12:02:25;;;;;;;69.47;21.52;;;4.00;99.90;;;;;;5076948;28;20031;-62
2022/01/13 12:05:07;;;;;;;51.38;20.88;;;3.70;99.90;;;;;;5076884;28;20032;-62
2022/01/13 12:07:38;;;;;;;63.90;22.85;;;3.90;99.90;;;;;;5076901;28;20051;-62
2022/01/13 12:10:06;;;;;;;56.30;22.67;;;3.80;99.90;;;;;;5076477;28;20032;-62
2022/01/13 12:12:34;;;;;;;57.33;22.60;;;3.80;99.90;;;;;;5076727;28;20033;-62
2022/01/13 12:15:23;;;;;;;73.43;23.00;;;4.00;99.90;;;;;;5075930;28;20050;-62
2022/01/13 12:18:03;;;;;;;56.38;21.63;;;3.90;99.90;;;;;;5076361;28;20081;-63
2022/01/13 12:20:46;;;;;;;65.32;23.00;;;4.00;99.90;;;;;;5075927;28;20044;-62
2022/01/13 12:23:40;;;;;;;60.03;22.52;;;4.10;99.90;;;;;;5076781;28;20269;-62
2022/01/13 12:26:46;;;;;;;62.75;22.85;;;4.00;99.90;;;;;;5077049;28;20039;-63
2022/01/13 12:29:19;;;;;;;64.80;22.73;;;4.00;99.90;;;;;;5076636;28;20393;-61
2022/01/13 12:32:03;;;;;;;66.60;24.48;;;3.90;99.90;;;;;;5076820;28;20388;-62
2022/01/13 12:34:29;;;;;;;65.72;23.63;;;3.80;99.90;;;;;;5076656;28;20047;-62
2022/01/13 12:36:56;;;;;;;57.88;23.02;;;3.80;99.90;;;;;;5076940;28;20372;-62
2022/01/13 12:39:22;;;;;;;55.67;22.38;;;3.90;99.90;;;;;;5076622;28;20048;-61
2022/01/13 12:41:58;;;;;;;74.80;22.40;;;4.00;99.90;;;;;;5076609;28;20028;-62
2022/01/13 12:47:21;;;;;;;53.13;22.15;;;4.10;99.90;;;;;;5040273;28;20045;-63
2022/01/13 12:49:47;;;;;;;57.13;22.77;;;4.00;99.90;;;;;;5076492;28;20124;-64
2022/01/13 12:52:20;;;;;;;52.38;22.17;;;4.30;99.90;;;;;;5075860;28;20112;-63
2022/01/13 12:54:46;;;;;;;;;;;4.40;99.90;;;;;;5076512;28;20025;-62
2022/01/13 12:57:13;;;;;;;55.92;22.55;;;4.30;99.90;;;;;;5075735;28;19919;-61
2022/01/13 12:59:39;;;;;;;57.30;22.60;;;4.30;99.90;;;;;;5075739;28;20052;-62
2022/01/13 13:02:04;;;;;;;57.40;22.60;;;4.20;99.90;;;;;;5075671;28;20284;-61
2022/01/13 13:04:35;;;;;;;69.15;23.30;;;4.10;99.90;;;;;;5076302;28;20063;-62
2022/01/13 13:07:02;;;;;;;78.00;24.27;;;4.10;99.90;;;;;;5076951;28;20273;-62
2022/01/13 13:09:30;;;;;;;66.72;23.25;;;4.30;99.90;;;;;;5076230;28;20044;-63
2022/01/13 13:12:01;;;;;;;65.80;23.67;;;4.30;99.90;;;;;;5075471;28;20029;-62